Garden Spring, Nevada Weather observations

Data are for 10 minute period ending at time listed.
 Day   Time    Ave.   Ave.  Ave.  Vector   Max.   Stn.    Total    Solar   Ave.  
  of    of     Air    Rel.  Wind   Wind    Wind   Baro.  Precip.   Rad.    Soil  
Year   Day     Temp.  Hum.  Speed  Dir.    Gust   Pres.                    Temp. 
2015   (PST)    F      %     mph   deg.    mph     mb.     in.     W/m2     F    
--------------------------------------------------------------------------------- 
 215   17:00   92.5    12    7.7   180     20.0   851.2    0.00     605    91.7  
 215   18:00   91.6    12    7.2   195     17.3   850.9    0.00     407    91.7  
 215   19:00   90.1    13    5.4   194     11.1   850.7    0.00     198    91.1  
 215   20:00   86.1    14    4.7   208      9.5   851.0    0.00      23    90.0  
 215   21:00   80.6    18    4.5   236      8.9   851.3    0.00       0    88.8  
 215   22:00   81.7    18    5.0   216     10.0   851.8    0.00       0    88.0  
 215   23:00   79.0    20    4.1   252      8.7   852.0    0.00       0    86.8  
 216    0:00   77.7    18    4.9   237      8.4   852.0    0.00       0    85.7  
 216    1:00   79.7    14    5.4   219     10.5   852.2    0.00       0    84.8  
 216    2:00   75.3    16    3.3   245      9.4   852.4    0.00       0    83.6  
 216    3:00   70.5    22    3.7   280      7.0   852.7    0.00       0    82.6  
 216    4:00   68.8    25    4.6   276      6.8   852.9    0.00       0    81.9  
 216    5:00   68.4    26    4.7   271      6.5   853.0    0.00       0    81.1  
 216    6:00   67.9    26    4.9   270      7.0   853.3    0.00       3    80.3  
 216    7:00   73.3    24    3.5   276      5.3   853.7    0.00     104    80.2  
 216    8:00   83.5    17    2.5    92      8.5   854.1    0.00     299    80.4  
 216    9:00   84.5    17    6.5   157     16.0   854.4    0.00     504    79.6  
 216   10:00   86.6    14    6.7   160     14.0   854.3    0.00     690    79.8  
 216   11:00   88.5    13    7.7   172     17.1   854.4    0.00     839    81.1  
 216   12:00   89.7    12    8.4   171     17.7   854.4    0.00     938    82.9  
 216   13:00   90.4    12    8.7   172     18.5   854.1    0.00     981    84.7  
 216   14:00   91.6    12    7.5   183     17.1   853.7    0.00     937    87.1  
 216   15:00   92.0    12    8.1   182     19.1   853.3    0.00     805    89.7  
 216   16:00   92.4    11    8.7   181     19.8   852.9    0.00     733    91.7  

Return to Garden Spring, Nevada graphs page.


Western Regional Climate Center,wrcc@dri.edu